Kerchenskiy 2 — UBMM6 — position and weather

sailwx.info

Track history (hours):
 
Tides and Currents Weather Stations Pressure Air Temp Water Temp Dewpoint Dewpoint Depression Visibility Wind Speed Wind Dir Waves Ship Positions

Kerchenskiy 2

Last reported at 2018-Jan-18 16:24 UTC. Time now 2018-Jan-18 19:59 UTC.
Position N 45°22' E 036°29'.

Length 77 m; draft 4.2 m.

Type: Passenger vessel. MMSI: 273373520.

Date/timePositionNaut miles runAvg speedWind from/ knotsBaromVisibWave heightAir tempDewpointWater temp
2018-Jan-18 16:24N 45°22' E 036°29'2 4.4
2018-Jan-18 16:01N 45°20' E 036°30'4 7.5
2018-Jan-18 15:30N 45°20' E 036°35'4 7.0
2018-Jan-18 15:00N 45°20' E 036°40'0 0.0
2018-Jan-18 14:30N 45°20' E 036°40'2 3.7
2018-Jan-18 14:00N 45°21' E 036°38'5 9.9
2018-Jan-18 13:30N 45°19' E 036°31'3 1.3
2018-Jan-18 10:56N 45°22' E 036°29'0 0.0
2018-Jan-18 10:24N 45°22' E 036°29'0 0.0
2018-Jan-18 09:56N 45°22' E 036°29'0 0.0
2018-Jan-18 09:30N 45°22' E 036°29'0 0.0
2018-Jan-18 09:00N 45°22' E 036°29'0 0.0
2018-Jan-18 08:30N 45°22' E 036°29'0 0.0
2018-Jan-18 08:00N 45°22' E 036°29'0 0.0
2018-Jan-18 07:17N 45°22' E 036°29'0 0.0
2018-Jan-18 07:00N 45°22' E 036°29'0 0.0
2018-Jan-18 06:17N 45°22' E 036°29'0 0.0
2018-Jan-18 06:00N 45°22' E 036°29'0 0.0
2018-Jan-18 05:18N 45°22' E 036°29'0 0.0
2018-Jan-18 04:59N 45°22' E 036°29'0 0.0
2018-Jan-18 04:28N 45°22' E 036°29'0 0.0
2018-Jan-18 03:59N 45°22' E 036°29'0 0.0
2018-Jan-18 03:28N 45°22' E 036°29'0 0.0
2018-Jan-18 03:00N 45°22' E 036°29'0 0.0
2018-Jan-18 02:29N 45°22' E 036°29'0 0.0
2018-Jan-17 23:37N 45°22' E 036°29'  
2018-Jan-12 13:49N 45°22' E 036°29'0 0.0
2018-Jan-12 04:42N 45°22' E 036°29'0 0.4
2018-Jan-12 04:30N 45°22' E 036°29'1 1.7
2018-Jan-12 03:58N 45°21' E 036°30'3 7.2
2018-Jan-12 03:30N 45°20' E 036°34'4 8.4
2018-Jan-12 02:59N 45°20' E 036°40'0 0.1
2018-Jan-12 02:30N 45°20' E 036°40'2 2.9
2018-Jan-12 01:58N 45°21' E 036°38'4 7.6
2018-Jan-12 01:30N 45°20' E 036°34'3 6.8
2018-Jan-12 01:00N 45°21' E 036°29'1 0.7
2018-Jan-12 00:11N 45°22' E 036°29'1 7.4
2018-Jan-12 00:00N 45°20' E 036°30'4 7.5
2018-Jan-11 23:30N 45°20' E 036°35'4 7.5
2018-Jan-11 23:01N 45°20' E 036°40'0 0.1
2018-Jan-11 22:30N 45°20' E 036°40'3 5.3
2018-Jan-11 22:01N 45°20' E 036°37'4 8.3
2018-Jan-11 21:30N 45°19' E 036°31'3 2.8
2018-Jan-11 20:25N 45°22' E 036°29'0 0.4
2018-Jan-11 20:00N 45°22' E 036°29'0 0.0
2018-Jan-11 19:30N 45°22' E 036°29'0 0.0
2018-Jan-11 18:56N 45°22' E 036°29'0 0.0
2018-Jan-11 18:30N 45°22' E 036°29'0 0.0
2018-Jan-11 18:00N 45°22' E 036°29'0 0.0
2018-Jan-11 17:29N 45°22' E 036°29'0 0.0
2018-Jan-11 16:40N 45°22' E 036°29'0 0.0
2018-Jan-11 16:25N 45°22' E 036°29'0 0.0
2018-Jan-11 15:43N 45°22' E 036°29'0 0.0
2018-Jan-11 15:30N 45°22' E 036°29'0 0.0
2018-Jan-11 15:00N 45°22' E 036°29'0 0.0
2018-Jan-11 14:30N 45°22' E 036°29'0 0.0
2018-Jan-11 14:00N 45°22' E 036°29'0 0.0
2018-Jan-11 13:30N 45°22' E 036°29'0 0.0
2018-Jan-11 12:58N 45°22' E 036°29'0 0.0
2018-Jan-11 12:26N 45°22' E 036°29'0 0.0
2018-Jan-11 11:58N 45°22' E 036°29'0 0.0
2018-Jan-11 11:11N 45°22' E 036°29'0 0.0
2018-Jan-11 10:59N 45°22' E 036°29'0 0.0
2018-Jan-11 10:23N 45°22' E 036°29'0 0.0
2018-Jan-11 09:31N 45°22' E 036°29'0 0.0
2018-Jan-11 08:36N 45°22' E 036°29'0 0.0
2018-Jan-11 08:25N 45°22' E 036°29'0 0.0
2018-Jan-11 08:00N 45°22' E 036°29'0 0.0
2018-Jan-10 16:58N 45°22' E 036°29'0 0.3
2018-Jan-10 16:18N 45°22' E 036°29'2 8.4
2018-Jan-10 16:00N 45°19' E 036°31'4 8.7
2018-Jan-10 15:31N 45°20' E 036°37'3 5.2
2018-Jan-10 15:00N 45°20' E 036°40'0 0.1
2018-Jan-10 14:30N 45°20' E 036°40'3 7.0
2018-Jan-10 14:00N 45°20' E 036°35'4 7.5
2018-Jan-10 13:29N 45°20' E 036°30'1 2.4
2018-Jan-10 12:53N 45°22' E 036°29'2 6.6
2018-Jan-10 12:30N 45°19' E 036°31'3 6.4
2018-Jan-10 12:00N 45°20' E 036°35'3 6.3
2018-Jan-10 11:30N 45°21' E 036°39'1 2.2
2018-Jan-10 11:00N 45°20' E 036°40'1 2.4
2018-Jan-10 10:30N 45°21' E 036°39'5 9.8
2018-Jan-10 10:00N 45°19' E 036°33'3 7.0
2018-Jan-10 09:30N 45°22' E 036°29'0 0.2
2018-Jan-10 08:58N 45°22' E 036°29'0 0.0
2018-Jan-10 08:01N 45°22' E 036°29'0 1.0
2018-Jan-10 07:57N 45°22' E 036°29'0 0.5
2018-Jan-10 07:30N 45°22' E 036°29'0 0.0
2018-Jan-09 01:21N 45°22' E 036°29'  
Track history (hours):
 
Tides and Currents Weather Stations Pressure Air Temp Water Temp Dewpoint Dewpoint Depression Visibility Wind Speed Wind Dir Waves Ship Positions

Kerchenskiy 2

Last reported at 2018-Jan-18 16:24 UTC. Time now 2018-Jan-18 19:59 UTC.
Position N 45°22' E 036°29'.

Length 77 m; draft 4.2 m.

Type: Passenger vessel. MMSI: 273373520.

Date/timePositionNaut miles runAvg speedWind from/ knotsBaromVisibWave heightAir tempDewpointWater temp
2018-Jan-18 16:24N 45°22' E 036°29'2 4.4
2018-Jan-18 16:01N 45°20' E 036°30'4 7.5
2018-Jan-18 15:30N 45°20' E 036°35'4 7.0
2018-Jan-18 15:00N 45°20' E 036°40'0 0.0
2018-Jan-18 14:30N 45°20' E 036°40'2 3.7
2018-Jan-18 14:00N 45°21' E 036°38'5 9.9
2018-Jan-18 13:30N 45°19' E 036°31'3 1.3
2018-Jan-18 10:56N 45°22' E 036°29'0 0.0
2018-Jan-18 10:24N 45°22' E 036°29'0 0.0
2018-Jan-18 09:56N 45°22' E 036°29'0 0.0
2018-Jan-18 09:30N 45°22' E 036°29'0 0.0
2018-Jan-18 09:00N 45°22' E 036°29'0 0.0
2018-Jan-18 08:30N 45°22' E 036°29'0 0.0
2018-Jan-18 08:00N 45°22' E 036°29'0 0.0
2018-Jan-18 07:17N 45°22' E 036°29'0 0.0
2018-Jan-18 07:00N 45°22' E 036°29'0 0.0
2018-Jan-18 06:17N 45°22' E 036°29'0 0.0
2018-Jan-18 06:00N 45°22' E 036°29'0 0.0
2018-Jan-18 05:18N 45°22' E 036°29'0 0.0
2018-Jan-18 04:59N 45°22' E 036°29'0 0.0
2018-Jan-18 04:28N 45°22' E 036°29'0 0.0
2018-Jan-18 03:59N 45°22' E 036°29'0 0.0
2018-Jan-18 03:28N 45°22' E 036°29'0 0.0
2018-Jan-18 03:00N 45°22' E 036°29'0 0.0
2018-Jan-18 02:29N 45°22' E 036°29'0 0.0
2018-Jan-17 23:37N 45°22' E 036°29'  
2018-Jan-12 13:49N 45°22' E 036°29'0 0.0
2018-Jan-12 04:42N 45°22' E 036°29'0 0.4
2018-Jan-12 04:30N 45°22' E 036°29'1 1.7
2018-Jan-12 03:58N 45°21' E 036°30'3 7.2
2018-Jan-12 03:30N 45°20' E 036°34'4 8.4
2018-Jan-12 02:59N 45°20' E 036°40'0 0.1
2018-Jan-12 02:30N 45°20' E 036°40'2 2.9
2018-Jan-12 01:58N 45°21' E 036°38'4 7.6
2018-Jan-12 01:30N 45°20' E 036°34'3 6.8
2018-Jan-12 01:00N 45°21' E 036°29'1 0.7
2018-Jan-12 00:11N 45°22' E 036°29'1 7.4
2018-Jan-12 00:00N 45°20' E 036°30'4 7.5
2018-Jan-11 23:30N 45°20' E 036°35'4 7.5
2018-Jan-11 23:01N 45°20' E 036°40'0 0.1
2018-Jan-11 22:30N 45°20' E 036°40'3 5.3
2018-Jan-11 22:01N 45°20' E 036°37'4 8.3
2018-Jan-11 21:30N 45°19' E 036°31'3 2.8
2018-Jan-11 20:25N 45°22' E 036°29'0 0.4
2018-Jan-11 20:00N 45°22' E 036°29'0 0.0
2018-Jan-11 19:30N 45°22' E 036°29'0 0.0
2018-Jan-11 18:56N 45°22' E 036°29'0 0.0
2018-Jan-11 18:30N 45°22' E 036°29'0 0.0
2018-Jan-11 18:00N 45°22' E 036°29'0 0.0
2018-Jan-11 17:29N 45°22' E 036°29'0 0.0
2018-Jan-11 16:40N 45°22' E 036°29'0 0.0
2018-Jan-11 16:25N 45°22' E 036°29'0 0.0
2018-Jan-11 15:43N 45°22' E 036°29'0 0.0
2018-Jan-11 15:30N 45°22' E 036°29'0 0.0
2018-Jan-11 15:00N 45°22' E 036°29'0 0.0
2018-Jan-11 14:30N 45°22' E 036°29'0 0.0
2018-Jan-11 14:00N 45°22' E 036°29'0 0.0
2018-Jan-11 13:30N 45°22' E 036°29'0 0.0
2018-Jan-11 12:58N 45°22' E 036°29'0 0.0
2018-Jan-11 12:26N 45°22' E 036°29'0 0.0
2018-Jan-11 11:58N 45°22' E 036°29'0 0.0
2018-Jan-11 11:11N 45°22' E 036°29'0 0.0
2018-Jan-11 10:59N 45°22' E 036°29'0 0.0
2018-Jan-11 10:23N 45°22' E 036°29'0 0.0
2018-Jan-11 09:31N 45°22' E 036°29'0 0.0
2018-Jan-11 08:36N 45°22' E 036°29'0 0.0
2018-Jan-11 08:25N 45°22' E 036°29'0 0.0
2018-Jan-11 08:00N 45°22' E 036°29'0 0.0
2018-Jan-10 16:58N 45°22' E 036°29'0 0.3
2018-Jan-10 16:18N 45°22' E 036°29'2 8.4
2018-Jan-10 16:00N 45°19' E 036°31'4 8.7
2018-Jan-10 15:31N 45°20' E 036°37'3 5.2
2018-Jan-10 15:00N 45°20' E 036°40'0 0.1
2018-Jan-10 14:30N 45°20' E 036°40'3 7.0
2018-Jan-10 14:00N 45°20' E 036°35'4 7.5
2018-Jan-10 13:29N 45°20' E 036°30'1 2.4
2018-Jan-10 12:53N 45°22' E 036°29'2 6.6
2018-Jan-10 12:30N 45°19' E 036°31'3 6.4
2018-Jan-10 12:00N 45°20' E 036°35'3 6.3
2018-Jan-10 11:30N 45°21' E 036°39'1 2.2
2018-Jan-10 11:00N 45°20' E 036°40'1 2.4
2018-Jan-10 10:30N 45°21' E 036°39'5 9.8
2018-Jan-10 10:00N 45°19' E 036°33'3 7.0
2018-Jan-10 09:30N 45°22' E 036°29'0 0.2
2018-Jan-10 08:58N 45°22' E 036°29'0 0.0
2018-Jan-10 08:01N 45°22' E 036°29'0 1.0
2018-Jan-10 07:57N 45°22' E 036°29'0 0.5
2018-Jan-10 07:30N 45°22' E 036°29'0 0.0
2018-Jan-09 01:21N 45°22' E 036°29'  

Dump ship's entire track history